Pegasus Voyager — C6AP3 — position and weather

sailwx.info

Track history (hours):
 
Tides and Currents Weather Stations Pressure Air Temp Water Temp Dewpoint Dewpoint Depression Visibility Wind Speed Wind Dir Waves Ship Positions

Pegasus Voyager

Last reported at 2018-Jun-18 09:02 UTC. Time now 2018-Jun-18 11:33 UTC.
Position N 33°54' W 118°29'.

Length 276 m; draft 11 m.

Type: Ship. MMSI: 311000111.

Date/timePositionNaut miles runAvg speedWind from/ knotsBaromVisibWave heightAir tempDewpointWater temp
2018-Jun-18 09:02N 33°54' W 118°29'0 4.4
2018-Jun-18 08:58N 33°55' W 118°29'1 0.1
2018-Jun-17 16:11N 33°54' W 118°27'0 0.0
2018-Jun-16 20:54N 33°54' W 118°27'0 0.5
2018-Jun-16 20:30N 33°54' W 118°27'1 2.1
2018-Jun-16 19:58N 33°53' W 118°28'1 0.2
2018-Jun-16 14:43N 33°53' W 118°29'0 1.6
2018-Jun-16 14:30N 33°53' W 118°29'2 4.6
2018-Jun-16 14:00N 33°52' W 118°31'3 5.5
2018-Jun-16 13:24N 33°51' W 118°35'511.7
2018-Jun-16 13:00N 33°49' W 118°40'611.0
2018-Jun-16 12:30N 33°45' W 118°45'611.9
2018-Jun-16 12:00N 33°45' W 118°52'611.8
2018-Jun-16 11:29N 33°45' W 118°59'612.0
2018-Jun-16 11:00N 33°45' W 119°06'713.8
2018-Jun-16 10:29N 33°44' W 119°15'814.2
2018-Jun-16 09:56N 33°43' W 119°24'614.4
2018-Jun-16 09:30N 33°42' W 119°32'714.3
2018-Jun-16 09:01N 33°41' W 119°40'714.0
2018-Jun-16 08:30N 33°39' W 119°48'914.1
2018-Jun-16 07:50N 33°38' W 119°59'513.4
2018-Jun-16 07:30N 33°37' W 120°05'713.8
2018-Jun-16 07:00N 33°37' W 120°13'814.8
2018-Jun-16 06:29N 33°40' W 120°21'715.0
2018-Jun-16 06:00N 33°44' W 120°29'4537.0
2018-Jun-16 06:00N 33°42' W 120°24'1224.2 320 / 251009.710.8 14.012.215.0
2018-Jun-16 05:31N 33°47' W 120°37'714.5
2018-Jun-16 05:00N 33°51' W 120°44'714.2
2018-Jun-16 04:30N 33°55' W 120°52'713.6
2018-Jun-16 03:58N 33°58' W 120°59'610.0
2018-Jun-16 03:23N 34°01' W 121°05'614.7
2018-Jun-16 03:01N 34°05' W 121°10'914.5
2018-Jun-16 02:25N 34°09' W 121°19'814.7
2018-Jun-16 01:54N 34°13' W 121°27'714.7
2018-Jun-16 01:27N 34°17' W 121°33'814.8
2018-Jun-16 00:53N 34°22' W 121°41'615.2
2018-Jun-16 00:29N 34°27' W 121°45'3 7.1
2018-Jun-16 00:00N 34°30' W 121°48'4169.1 330 / 151011.710.8 17.013.514.0
2018-Jun-15 23:58N 34°34' W 121°50'715.3
2018-Jun-15 23:29N 34°40' W 121°55'714.8
2018-Jun-15 23:00N 34°46' W 121°59'714.9
2018-Jun-15 22:30N 34°52' W 122°04'814.9
2018-Jun-15 21:59N 34°59' W 122°09'714.9
2018-Jun-15 21:31N 35°05' W 122°14'814.9
2018-Jun-15 20:58N 35°12' W 122°19'714.9
2018-Jun-15 20:31N 35°18' W 122°23'714.2
2018-Jun-15 20:00N 35°24' W 122°28'714.3
2018-Jun-15 19:31N 35°30' W 122°32'714.6
2018-Jun-15 19:00N 35°36' W 122°37'814.0
2018-Jun-15 18:28N 35°43' W 122°41'714.2
2018-Jun-15 18:00N 35°49' W 122°45'3577.3
2018-Jun-15 18:00N 35°48' W 122°42'9312.3 320 / 221013.6 5.4 15.013.214.0
2018-Jun-15 10:27N 37°18' W 123°12'612.0
2018-Jun-15 09:58N 37°24' W 123°09'612.0
2018-Jun-15 09:30N 37°29' W 123°07'611.7
2018-Jun-15 09:00N 37°34' W 123°04'5 9.7
2018-Jun-15 08:30N 37°37' W 122°59'5 9.8
2018-Jun-15 07:59N 37°40' W 122°54'5 9.5
2018-Jun-15 07:31N 37°42' W 122°49'5 9.3
2018-Jun-15 07:00N 37°44' W 122°43'3 6.0
2018-Jun-15 06:31N 37°46' W 122°40'510.7
2018-Jun-15 06:01N 37°47' W 122°34'5 9.3
2018-Jun-15 05:30N 37°49' W 122°29'4 7.4
2018-Jun-15 05:01N 37°51' W 122°25'4 7.2
2018-Jun-15 04:30N 37°55' W 122°25'1 1.6
2018-Jun-15 04:00N 37°56' W 122°25'0 0.0
2018-Jun-15 03:30N 37°56' W 122°25'0 0.0
2018-Jun-15 03:00N 37°56' W 122°25'0 0.0
2018-Jun-15 02:30N 37°56' W 122°25'0 0.0
2018-Jun-15 02:00N 37°56' W 122°25'0 0.0
2018-Jun-15 01:30N 37°56' W 122°25'0 0.0
2018-Jun-15 01:00N 37°56' W 122°25'0 0.0
2018-Jun-15 00:27N 37°56' W 122°25'0 0.0
2018-Jun-14 23:57N 37°56' W 122°25'0 0.0
2018-Jun-14 23:30N 37°56' W 122°25'0 0.0
2018-Jun-14 23:00N 37°56' W 122°25'0 0.0
2018-Jun-14 22:30N 37°56' W 122°25'0 0.0
2018-Jun-14 21:54N 37°56' W 122°25'0 0.0
2018-Jun-14 21:30N 37°56' W 122°25'0 0.0
2018-Jun-14 21:00N 37°56' W 122°25'0 0.0
2018-Jun-14 20:30N 37°56' W 122°25'0 0.0
2018-Jun-14 20:00N 37°56' W 122°25'0 0.0
2018-Jun-14 19:27N 37°56' W 122°25'0 0.0
2018-Jun-14 18:12N 37°56' W 122°25'0 0.0
2018-Jun-14 16:18N 37°56' W 122°25'0 0.0
2018-Jun-14 15:57N 37°56' W 122°25'0 0.0
2018-Jun-14 15:21N 37°56' W 122°25'0 0.0
2018-Jun-14 14:42N 37°56' W 122°25'0 0.0
2018-Jun-14 14:30N 37°56' W 122°25'0 0.0
2018-Jun-14 13:27N 37°56' W 122°25'0 0.0
2018-Jun-14 08:57N 37°56' W 122°25'0 0.1
2018-Jun-14 08:31N 37°56' W 122°25'1 2.5
2018-Jun-14 08:01N 37°54' W 122°25'5 9.1
2018-Jun-14 07:31N 37°50' W 122°24'3 6.7
2018-Jun-14 07:01N 37°49' W 122°28'610.9
2018-Jun-14 06:30N 37°47' W 122°35'511.0
2018-Jun-14 06:01N 37°44' W 122°41'5 9.2
2018-Jun-14 05:30N 37°42' W 122°46'4 8.1
2018-Jun-14 04:59N 37°39' W 122°50'4 7.4
2018-Jun-14 04:30N 37°37' W 122°54'5 9.5
2018-Jun-14 04:00N 37°34' W 122°58'510.4
2018-Jun-14 03:31N 37°31' W 123°03'611.5
2018-Jun-14 03:01N 37°26' W 123°06'611.7
2018-Jun-14 02:31N 37°20' W 123°06'611.8
2018-Jun-14 02:00N 37°14' W 123°06'612.3
2018-Jun-14 01:30N 37°08' W 123°07'612.4
2018-Jun-14 01:00N 37°01' W 123°08'611.6
2018-Jun-14 00:30N 36°56' W 123°08'3 6.4
2018-Jun-14 00:01N 36°52' W 123°08'5268.1
2018-Jun-14 00:00N 36°48' W 123°06'2 4.3 340 / 281012.510.8 16.012.414.0
2018-Jun-13 23:31N 36°46' W 123°08'612.0
2018-Jun-13 22:59N 36°40' W 123°08'1616.2
2018-Jun-13 22:00N 36°24' W 123°06'2710.6 350 / 271011.6 5.4 16.014.314.0
2018-Jun-13 19:29N 36°00' W 122°52'2013.2
2018-Jun-13 18:00N 35°42' W 122°42'4 8.9 340 / 351012.6 5.4 16.010.414.0
2018-Jun-13 17:35N 35°39' W 122°40'312.8
2018-Jun-13 17:20N 35°36' W 122°38'612.8
2018-Jun-13 16:54N 35°31' W 122°35'513.1
2018-Jun-13 16:31N 35°26' W 122°33'713.1
2018-Jun-13 16:00N 35°20' W 122°29'612.8
2018-Jun-13 15:30N 35°15' W 122°25'612.5
2018-Jun-13 15:01N 35°09' W 122°21'2012.6
2018-Jun-13 13:26N 34°51' W 122°11'512.5
2018-Jun-13 13:01N 34°46' W 122°09'612.3
2018-Jun-13 12:30N 34°41' W 122°06'612.5
2018-Jun-13 12:00N 34°35' W 122°03'612.3
2018-Jun-13 11:31N 34°30' W 121°58'713.0
2018-Jun-13 10:58N 34°24' W 121°54'712.8
2018-Jun-13 10:25N 34°18' W 121°50'513.0
2018-Jun-13 10:00N 34°13' W 121°47'1213.4
2018-Jun-13 09:05N 34°02' W 121°40'217.0
2018-Jun-13 08:59N 34°00' W 121°39'812.9
2018-Jun-13 08:22N 33°53' W 121°35'513.3
2018-Jun-13 08:01N 33°49' W 121°33'1313.0
2018-Jun-13 07:01N 33°37' W 121°26'713.1
2018-Jun-13 06:30N 33°31' W 121°22'713.2
2018-Jun-13 06:00N 33°26' W 121°19'6498.8
2018-Jun-13 06:00N 33°24' W 121°12'510.4 350 / 281011.610.8 15.013.216.0
2018-Jun-13 05:30N 33°20' W 121°15'713.2
2018-Jun-13 04:58N 33°13' W 121°11'613.0
2018-Jun-13 04:30N 33°08' W 121°08'713.0
2018-Jun-13 04:00N 33°02' W 121°04'612.9
2018-Jun-13 03:30N 32°57' W 120°60'713.0
2018-Jun-13 03:00N 32°51' W 120°56'612.8
2018-Jun-13 02:30N 32°46' W 120°52'612.7
2018-Jun-13 02:00N 32°40' W 120°48'712.6
2018-Jun-13 01:27N 32°36' W 120°42'613.0
2018-Jun-13 01:00N 32°33' W 120°36'712.9
2018-Jun-13 00:26N 32°30' W 120°28'1022.9
2018-Jun-13 00:00N 32°24' W 120°18'5215.6 320 / 201011.510.8 17.011.516.0
2018-Jun-12 23:58N 32°29' W 120°20'1413.4
2018-Jun-12 22:56N 32°29' W 120°04'613.8
2018-Jun-12 22:29N 32°30' W 119°57'1113.6
2018-Jun-12 21:39N 32°34' W 119°44'214.0
2018-Jun-12 21:31N 32°34' W 119°42'713.6
2018-Jun-12 21:00N 32°38' W 119°35'813.0
2018-Jun-12 20:21N 32°44' W 119°28'513.0
2018-Jun-12 20:00N 32°47' W 119°24'510.5
2018-Jun-12 19:30N 32°52' W 119°22'611.7
2018-Jun-12 19:00N 32°57' W 119°24'5 8.6
2018-Jun-12 18:26N 33°01' W 119°20'511.1
2018-Jun-12 18:00N 33°02' W 119°14'510.8
2018-Jun-12 17:30N 33°06' W 119°10'510.6
2018-Jun-12 17:00N 33°08' W 119°04'610.9
2018-Jun-12 16:29N 33°11' W 118°58'511.1
2018-Jun-12 16:00N 33°14' W 118°53'611.5
2018-Jun-12 15:28N 33°14' W 118°45'511.1
2018-Jun-12 15:00N 33°13' W 118°39'611.6
2018-Jun-12 14:30N 33°11' W 118°33'611.6
2018-Jun-12 14:00N 33°08' W 118°27'611.3
2018-Jun-12 13:30N 33°06' W 118°21'611.4
2018-Jun-12 13:00N 33°06' W 118°14'611.7
2018-Jun-12 12:28N 33°06' W 118°07'511.5
2018-Jun-12 12:00N 33°06' W 118°00'5 9.8
2018-Jun-12 11:30N 33°05' W 117°54'1 2.2
2018-Jun-12 11:00N 33°04' W 117°53'0 1.0
2018-Jun-12 10:30N 33°04' W 117°53'1 1.2
2018-Jun-12 10:00N 33°03' W 117°53'1 1.2
2018-Jun-12 09:24N 33°03' W 117°53'0 1.1
2018-Jun-12 09:00N 33°02' W 117°52'1 1.1
2018-Jun-12 08:30N 33°02' W 117°52'0 1.0
2018-Jun-12 08:00N 33°01' W 117°52'0 0.9
2018-Jun-12 07:30N 33°01' W 117°52'1 1.1
2018-Jun-12 07:00N 33°00' W 117°51'1 1.3
2018-Jun-12 06:30N 32°60' W 117°51'1 1.3
2018-Jun-12 06:00N 32°59' W 117°50'2393.4
2018-Jun-12 06:00N 33°00' W 117°48'2 4.3 270 / 31010.910.8 18.016.320.0
2018-Jun-12 05:30N 32°59' W 117°50'1 1.2
2018-Jun-12 05:00N 32°58' W 117°50'1 1.1
2018-Jun-12 04:30N 32°58' W 117°49'1 1.2
2018-Jun-12 04:00N 32°57' W 117°49'1 1.1
2018-Jun-12 03:30N 32°57' W 117°49'1 1.1
2018-Jun-12 03:00N 32°56' W 117°48'1 1.2
2018-Jun-12 02:30N 32°56' W 117°48'1 0.9
2018-Jun-12 01:54N 32°55' W 117°48'0 0.7
2018-Jun-12 01:24N 32°55' W 117°48'0 0.6
2018-Jun-12 01:00N 32°55' W 117°48'0 0.5
2018-Jun-12 00:30N 32°54' W 117°48'0 0.5
2018-Jun-12 00:00N 32°54' W 117°48'0 0.4
2018-Jun-11 23:30N 32°54' W 117°48'0 0.4
2018-Jun-11 22:54N 32°54' W 117°47'0 0.4
2018-Jun-11 22:30N 32°53' W 117°47'0 0.4
2018-Jun-11 22:00N 32°53' W 117°47'0 0.4
2018-Jun-11 21:30N 32°53' W 117°47'0 0.5
2018-Jun-11 20:54N 32°53' W 117°47'0 0.5
2018-Jun-11 20:30N 32°53' W 117°47'1 0.6
2018-Jun-11 19:30N 32°52' W 117°47'1 2.4
2018-Jun-11 19:00N 32°51' W 117°47'2 3.8
2018-Jun-11 18:30N 32°49' W 117°46'2 4.4
2018-Jun-11 18:00N 32°47' W 117°45'2 4.4
2018-Jun-11 17:30N 32°45' W 117°44'3 6.2
2018-Jun-11 17:00N 32°43' W 117°42'1 1.6
2018-Jun-11 16:28N 32°42' W 117°42'0 0.5
2018-Jun-11 16:00N 32°41' W 117°42'0 0.2
2018-Jun-11 15:30N 32°41' W 117°42'0 0.3
2018-Jun-11 15:00N 32°41' W 117°42'0 0.2
2018-Jun-11 14:30N 32°41' W 117°42'0 0.1
2018-Jun-11 14:00N 32°41' W 117°42'0 0.4
2018-Jun-11 13:30N 32°41' W 117°42'1 1.3
2018-Jun-11 13:00N 32°42' W 117°42'3 6.3
2018-Jun-11 12:30N 32°41' W 117°46'612.3
2018-Jun-11 12:00N 32°39' W 117°53'612.2
2018-Jun-11 11:30N 32°38' W 117°60'612.3
2018-Jun-11 11:00N 32°37' W 118°07'612.5
2018-Jun-11 10:30N 32°36' W 118°14'612.4
2018-Jun-11 10:00N 32°35' W 118°21'612.2
2018-Jun-11 09:30N 32°34' W 118°29'612.3
2018-Jun-11 08:59N 32°33' W 118°36'612.0
2018-Jun-11 08:28N 32°32' W 118°43'612.1
2018-Jun-11 07:59N 32°32' W 118°50'612.3
2018-Jun-11 07:30N 32°33' W 118°57'712.7
2018-Jun-11 06:58N 32°35' W 119°05'1111.3
2018-Jun-11 06:00N 32°36' W 119°18'1517.0 310 / 251011.810.8 15.011.315.0
2018-Jun-11 05:08N 32°46' W 119°31'213.9
2018-Jun-11 05:00N 32°47' W 119°33'713.4
2018-Jun-11 04:27N 32°50' W 119°41'713.1
2018-Jun-11 03:55N 32°53' W 119°48'913.0
2018-Jun-11 03:13N 32°59' W 119°57'513.4
2018-Jun-11 02:51N 33°02' W 120°01'413.2
2018-Jun-11 02:30N 33°05' W 120°05'713.2
2018-Jun-11 02:00N 33°10' W 120°10'613.1
2018-Jun-11 01:30N 33°15' W 120°15'612.9
2018-Jun-11 01:00N 33°20' W 120°21'713.1
2018-Jun-11 00:30N 33°24' W 120°26'713.3
2018-Jun-11 00:00N 33°29' W 120°32'5333.4
2018-Jun-11 00:00N 33°24' W 120°30'1223.5 330 / 351014.0 5.4 14.010.213.0
2018-Jun-10 23:30N 33°33' W 120°38'713.4
2018-Jun-10 22:58N 33°38' W 120°44'613.7
2018-Jun-10 22:31N 33°43' W 120°49'713.8
2018-Jun-10 21:59N 33°48' W 120°55'612.3
2018-Jun-10 21:28N 33°54' W 120°57'613.2
2018-Jun-10 21:00N 33°60' W 121°01'713.2
2018-Jun-10 20:30N 34°05' W 121°05'714.2
2018-Jun-10 19:59N 34°12' W 121°10'714.7
2018-Jun-10 19:30N 34°18' W 121°14'814.7
2018-Jun-10 18:59N 34°24' W 121°19'714.4
2018-Jun-10 18:30N 34°30' W 121°23'714.4
2018-Jun-10 18:00N 34°36' W 121°28'714.5
2018-Jun-10 17:31N 34°42' W 121°33'814.9
2018-Jun-10 17:00N 34°49' W 121°38'714.7
2018-Jun-10 16:31N 34°55' W 121°42'714.0
2018-Jun-10 16:00N 35°01' W 121°47'714.0
2018-Jun-10 15:30N 35°07' W 121°50'714.1
2018-Jun-10 14:59N 35°14' W 121°55'713.8
2018-Jun-10 14:30N 35°19' W 121°59'1414.2
2018-Jun-10 13:30N 35°31' W 122°08'10413.8
2018-Jun-10 06:00N 37°06' W 123°00'2417.7 310 / 301020.910.8 14.010.213.0
2018-Jun-10 04:37N 37°28' W 123°12'212.9
2018-Jun-10 04:29N 37°29' W 123°10'611.9
2018-Jun-10 04:00N 37°33' W 123°05'5 9.8
2018-Jun-10 03:30N 37°36' W 122°60'5 9.9
2018-Jun-10 03:00N 37°39' W 122°55'5 9.7
2018-Jun-10 02:30N 37°42' W 122°50'5 9.9
2018-Jun-10 02:00N 37°44' W 122°44'4 7.5
2018-Jun-10 01:30N 37°45' W 122°39'4 8.4
2018-Jun-10 01:00N 37°47' W 122°35'611.1
2018-Jun-10 00:30N 37°49' W 122°29'4 8.4
2018-Jun-10 00:00N 37°52' W 122°25'3 0.1
2018-Jun-08 17:14N 37°56' W 122°25'0 0.0
2018-Jun-08 17:00N 37°56' W 122°25'1 2.1
2018-Jun-08 16:30N 37°55' W 122°25'4 7.5
2018-Jun-08 16:00N 37°51' W 122°25'4 7.3
2018-Jun-08 15:30N 37°49' W 122°29'611.2
2018-Jun-08 15:00N 37°47' W 122°35'611.1
2018-Jun-08 14:30N 37°44' W 122°42'4 7.9
2018-Jun-08 14:00N 37°41' W 122°45'4 8.3
2018-Jun-08 13:30N 37°39' W 122°50'4 7.1
2018-Jun-08 13:00N 37°37' W 122°53'5 9.6
2018-Jun-08 12:30N 37°34' W 122°58'5 9.8
2018-Jun-08 12:00N 37°32' W 123°03'510.3
2018-Jun-08 11:30N 37°28' W 123°08'3 6.4
2018-Jun-08 11:00N 37°26' W 123°11'2 4.7
2018-Jun-08 10:30N 37°24' W 123°12'2 4.9
2018-Jun-08 10:00N 37°22' W 123°14'3 5.1
2018-Jun-08 09:30N 37°19' W 123°15'  
Track history (hours):
 
Tides and Currents Weather Stations Pressure Air Temp Water Temp Dewpoint Dewpoint Depression Visibility Wind Speed Wind Dir Waves Ship Positions

Pegasus Voyager

Last reported at 2018-Jun-18 09:02 UTC. Time now 2018-Jun-18 11:33 UTC.
Position N 33°54' W 118°29'.

Length 276 m; draft 11 m.

Type: Ship. MMSI: 311000111.

Date/timePositionNaut miles runAvg speedWind from/ knotsBaromVisibWave heightAir tempDewpointWater temp
2018-Jun-18 09:02N 33°54' W 118°29'0 4.4
2018-Jun-18 08:58N 33°55' W 118°29'1 0.1
2018-Jun-17 16:11N 33°54' W 118°27'0 0.0
2018-Jun-16 20:54N 33°54' W 118°27'0 0.5
2018-Jun-16 20:30N 33°54' W 118°27'1 2.1
2018-Jun-16 19:58N 33°53' W 118°28'1 0.2
2018-Jun-16 14:43N 33°53' W 118°29'0 1.6
2018-Jun-16 14:30N 33°53' W 118°29'2 4.6
2018-Jun-16 14:00N 33°52' W 118°31'3 5.5
2018-Jun-16 13:24N 33°51' W 118°35'511.7
2018-Jun-16 13:00N 33°49' W 118°40'611.0
2018-Jun-16 12:30N 33°45' W 118°45'611.9
2018-Jun-16 12:00N 33°45' W 118°52'611.8
2018-Jun-16 11:29N 33°45' W 118°59'612.0
2018-Jun-16 11:00N 33°45' W 119°06'713.8
2018-Jun-16 10:29N 33°44' W 119°15'814.2
2018-Jun-16 09:56N 33°43' W 119°24'614.4
2018-Jun-16 09:30N 33°42' W 119°32'714.3
2018-Jun-16 09:01N 33°41' W 119°40'714.0
2018-Jun-16 08:30N 33°39' W 119°48'914.1
2018-Jun-16 07:50N 33°38' W 119°59'513.4
2018-Jun-16 07:30N 33°37' W 120°05'713.8
2018-Jun-16 07:00N 33°37' W 120°13'814.8
2018-Jun-16 06:29N 33°40' W 120°21'715.0
2018-Jun-16 06:00N 33°44' W 120°29'4537.0
2018-Jun-16 06:00N 33°42' W 120°24'1224.2 320 / 251009.710.8 14.012.215.0
2018-Jun-16 05:31N 33°47' W 120°37'714.5
2018-Jun-16 05:00N 33°51' W 120°44'714.2
2018-Jun-16 04:30N 33°55' W 120°52'713.6
2018-Jun-16 03:58N 33°58' W 120°59'610.0
2018-Jun-16 03:23N 34°01' W 121°05'614.7
2018-Jun-16 03:01N 34°05' W 121°10'914.5
2018-Jun-16 02:25N 34°09' W 121°19'814.7
2018-Jun-16 01:54N 34°13' W 121°27'714.7
2018-Jun-16 01:27N 34°17' W 121°33'814.8
2018-Jun-16 00:53N 34°22' W 121°41'615.2
2018-Jun-16 00:29N 34°27' W 121°45'3 7.1
2018-Jun-16 00:00N 34°30' W 121°48'4169.1 330 / 151011.710.8 17.013.514.0
2018-Jun-15 23:58N 34°34' W 121°50'715.3
2018-Jun-15 23:29N 34°40' W 121°55'714.8
2018-Jun-15 23:00N 34°46' W 121°59'714.9
2018-Jun-15 22:30N 34°52' W 122°04'814.9
2018-Jun-15 21:59N 34°59' W 122°09'714.9
2018-Jun-15 21:31N 35°05' W 122°14'814.9
2018-Jun-15 20:58N 35°12' W 122°19'714.9
2018-Jun-15 20:31N 35°18' W 122°23'714.2
2018-Jun-15 20:00N 35°24' W 122°28'714.3
2018-Jun-15 19:31N 35°30' W 122°32'714.6
2018-Jun-15 19:00N 35°36' W 122°37'814.0
2018-Jun-15 18:28N 35°43' W 122°41'714.2
2018-Jun-15 18:00N 35°49' W 122°45'3577.3
2018-Jun-15 18:00N 35°48' W 122°42'9312.3 320 / 221013.6 5.4 15.013.214.0
2018-Jun-15 10:27N 37°18' W 123°12'612.0
2018-Jun-15 09:58N 37°24' W 123°09'612.0
2018-Jun-15 09:30N 37°29' W 123°07'611.7
2018-Jun-15 09:00N 37°34' W 123°04'5 9.7
2018-Jun-15 08:30N 37°37' W 122°59'5 9.8
2018-Jun-15 07:59N 37°40' W 122°54'5 9.5
2018-Jun-15 07:31N 37°42' W 122°49'5 9.3
2018-Jun-15 07:00N 37°44' W 122°43'3 6.0
2018-Jun-15 06:31N 37°46' W 122°40'510.7
2018-Jun-15 06:01N 37°47' W 122°34'5 9.3
2018-Jun-15 05:30N 37°49' W 122°29'4 7.4
2018-Jun-15 05:01N 37°51' W 122°25'4 7.2
2018-Jun-15 04:30N 37°55' W 122°25'1 1.6
2018-Jun-15 04:00N 37°56' W 122°25'0 0.0
2018-Jun-15 03:30N 37°56' W 122°25'0 0.0
2018-Jun-15 03:00N 37°56' W 122°25'0 0.0
2018-Jun-15 02:30N 37°56' W 122°25'0 0.0
2018-Jun-15 02:00N 37°56' W 122°25'0 0.0
2018-Jun-15 01:30N 37°56' W 122°25'0 0.0
2018-Jun-15 01:00N 37°56' W 122°25'0 0.0
2018-Jun-15 00:27N 37°56' W 122°25'0 0.0
2018-Jun-14 23:57N 37°56' W 122°25'0 0.0
2018-Jun-14 23:30N 37°56' W 122°25'0 0.0
2018-Jun-14 23:00N 37°56' W 122°25'0 0.0
2018-Jun-14 22:30N 37°56' W 122°25'0 0.0
2018-Jun-14 21:54N 37°56' W 122°25'0 0.0
2018-Jun-14 21:30N 37°56' W 122°25'0 0.0
2018-Jun-14 21:00N 37°56' W 122°25'0 0.0
2018-Jun-14 20:30N 37°56' W 122°25'0 0.0
2018-Jun-14 20:00N 37°56' W 122°25'0 0.0
2018-Jun-14 19:27N 37°56' W 122°25'0 0.0
2018-Jun-14 18:12N 37°56' W 122°25'0 0.0
2018-Jun-14 16:18N 37°56' W 122°25'0 0.0
2018-Jun-14 15:57N 37°56' W 122°25'0 0.0
2018-Jun-14 15:21N 37°56' W 122°25'0 0.0
2018-Jun-14 14:42N 37°56' W 122°25'0 0.0
2018-Jun-14 14:30N 37°56' W 122°25'0 0.0
2018-Jun-14 13:27N 37°56' W 122°25'0 0.0
2018-Jun-14 08:57N 37°56' W 122°25'0 0.1
2018-Jun-14 08:31N 37°56' W 122°25'1 2.5
2018-Jun-14 08:01N 37°54' W 122°25'5 9.1
2018-Jun-14 07:31N 37°50' W 122°24'3 6.7
2018-Jun-14 07:01N 37°49' W 122°28'610.9
2018-Jun-14 06:30N 37°47' W 122°35'511.0
2018-Jun-14 06:01N 37°44' W 122°41'5 9.2
2018-Jun-14 05:30N 37°42' W 122°46'4 8.1
2018-Jun-14 04:59N 37°39' W 122°50'4 7.4
2018-Jun-14 04:30N 37°37' W 122°54'5 9.5
2018-Jun-14 04:00N 37°34' W 122°58'510.4
2018-Jun-14 03:31N 37°31' W 123°03'611.5
2018-Jun-14 03:01N 37°26' W 123°06'611.7
2018-Jun-14 02:31N 37°20' W 123°06'611.8
2018-Jun-14 02:00N 37°14' W 123°06'612.3
2018-Jun-14 01:30N 37°08' W 123°07'612.4
2018-Jun-14 01:00N 37°01' W 123°08'611.6
2018-Jun-14 00:30N 36°56' W 123°08'3 6.4
2018-Jun-14 00:01N 36°52' W 123°08'5268.1
2018-Jun-14 00:00N 36°48' W 123°06'2 4.3 340 / 281012.510.8 16.012.414.0
2018-Jun-13 23:31N 36°46' W 123°08'612.0
2018-Jun-13 22:59N 36°40' W 123°08'1616.2
2018-Jun-13 22:00N 36°24' W 123°06'2710.6 350 / 271011.6 5.4 16.014.314.0
2018-Jun-13 19:29N 36°00' W 122°52'2013.2
2018-Jun-13 18:00N 35°42' W 122°42'4 8.9 340 / 351012.6 5.4 16.010.414.0
2018-Jun-13 17:35N 35°39' W 122°40'312.8
2018-Jun-13 17:20N 35°36' W 122°38'612.8
2018-Jun-13 16:54N 35°31' W 122°35'513.1
2018-Jun-13 16:31N 35°26' W 122°33'713.1
2018-Jun-13 16:00N 35°20' W 122°29'612.8
2018-Jun-13 15:30N 35°15' W 122°25'612.5
2018-Jun-13 15:01N 35°09' W 122°21'2012.6
2018-Jun-13 13:26N 34°51' W 122°11'512.5
2018-Jun-13 13:01N 34°46' W 122°09'612.3
2018-Jun-13 12:30N 34°41' W 122°06'612.5
2018-Jun-13 12:00N 34°35' W 122°03'612.3
2018-Jun-13 11:31N 34°30' W 121°58'713.0
2018-Jun-13 10:58N 34°24' W 121°54'712.8
2018-Jun-13 10:25N 34°18' W 121°50'513.0
2018-Jun-13 10:00N 34°13' W 121°47'1213.4
2018-Jun-13 09:05N 34°02' W 121°40'217.0
2018-Jun-13 08:59N 34°00' W 121°39'812.9
2018-Jun-13 08:22N 33°53' W 121°35'513.3
2018-Jun-13 08:01N 33°49' W 121°33'1313.0
2018-Jun-13 07:01N 33°37' W 121°26'713.1
2018-Jun-13 06:30N 33°31' W 121°22'713.2
2018-Jun-13 06:00N 33°26' W 121°19'6498.8
2018-Jun-13 06:00N 33°24' W 121°12'510.4 350 / 281011.610.8 15.013.216.0
2018-Jun-13 05:30N 33°20' W 121°15'713.2
2018-Jun-13 04:58N 33°13' W 121°11'613.0
2018-Jun-13 04:30N 33°08' W 121°08'713.0
2018-Jun-13 04:00N 33°02' W 121°04'612.9
2018-Jun-13 03:30N 32°57' W 120°60'713.0
2018-Jun-13 03:00N 32°51' W 120°56'612.8
2018-Jun-13 02:30N 32°46' W 120°52'612.7
2018-Jun-13 02:00N 32°40' W 120°48'712.6
2018-Jun-13 01:27N 32°36' W 120°42'613.0
2018-Jun-13 01:00N 32°33' W 120°36'712.9
2018-Jun-13 00:26N 32°30' W 120°28'1022.9
2018-Jun-13 00:00N 32°24' W 120°18'5215.6 320 / 201011.510.8 17.011.516.0
2018-Jun-12 23:58N 32°29' W 120°20'1413.4
2018-Jun-12 22:56N 32°29' W 120°04'613.8
2018-Jun-12 22:29N 32°30' W 119°57'1113.6
2018-Jun-12 21:39N 32°34' W 119°44'214.0
2018-Jun-12 21:31N 32°34' W 119°42'713.6
2018-Jun-12 21:00N 32°38' W 119°35'813.0
2018-Jun-12 20:21N 32°44' W 119°28'513.0
2018-Jun-12 20:00N 32°47' W 119°24'510.5
2018-Jun-12 19:30N 32°52' W 119°22'611.7
2018-Jun-12 19:00N 32°57' W 119°24'5 8.6
2018-Jun-12 18:26N 33°01' W 119°20'511.1
2018-Jun-12 18:00N 33°02' W 119°14'510.8
2018-Jun-12 17:30N 33°06' W 119°10'510.6
2018-Jun-12 17:00N 33°08' W 119°04'610.9
2018-Jun-12 16:29N 33°11' W 118°58'511.1
2018-Jun-12 16:00N 33°14' W 118°53'611.5
2018-Jun-12 15:28N 33°14' W 118°45'511.1
2018-Jun-12 15:00N 33°13' W 118°39'611.6
2018-Jun-12 14:30N 33°11' W 118°33'611.6
2018-Jun-12 14:00N 33°08' W 118°27'611.3
2018-Jun-12 13:30N 33°06' W 118°21'611.4
2018-Jun-12 13:00N 33°06' W 118°14'611.7
2018-Jun-12 12:28N 33°06' W 118°07'511.5
2018-Jun-12 12:00N 33°06' W 118°00'5 9.8
2018-Jun-12 11:30N 33°05' W 117°54'1 2.2
2018-Jun-12 11:00N 33°04' W 117°53'0 1.0
2018-Jun-12 10:30N 33°04' W 117°53'1 1.2
2018-Jun-12 10:00N 33°03' W 117°53'1 1.2
2018-Jun-12 09:24N 33°03' W 117°53'0 1.1
2018-Jun-12 09:00N 33°02' W 117°52'1 1.1
2018-Jun-12 08:30N 33°02' W 117°52'0 1.0
2018-Jun-12 08:00N 33°01' W 117°52'0 0.9
2018-Jun-12 07:30N 33°01' W 117°52'1 1.1
2018-Jun-12 07:00N 33°00' W 117°51'1 1.3
2018-Jun-12 06:30N 32°60' W 117°51'1 1.3
2018-Jun-12 06:00N 32°59' W 117°50'2393.4
2018-Jun-12 06:00N 33°00' W 117°48'2 4.3 270 / 31010.910.8 18.016.320.0
2018-Jun-12 05:30N 32°59' W 117°50'1 1.2
2018-Jun-12 05:00N 32°58' W 117°50'1 1.1
2018-Jun-12 04:30N 32°58' W 117°49'1 1.2
2018-Jun-12 04:00N 32°57' W 117°49'1 1.1
2018-Jun-12 03:30N 32°57' W 117°49'1 1.1
2018-Jun-12 03:00N 32°56' W 117°48'1 1.2
2018-Jun-12 02:30N 32°56' W 117°48'1 0.9
2018-Jun-12 01:54N 32°55' W 117°48'0 0.7
2018-Jun-12 01:24N 32°55' W 117°48'0 0.6
2018-Jun-12 01:00N 32°55' W 117°48'0 0.5
2018-Jun-12 00:30N 32°54' W 117°48'0 0.5
2018-Jun-12 00:00N 32°54' W 117°48'0 0.4
2018-Jun-11 23:30N 32°54' W 117°48'0 0.4
2018-Jun-11 22:54N 32°54' W 117°47'0 0.4
2018-Jun-11 22:30N 32°53' W 117°47'0 0.4
2018-Jun-11 22:00N 32°53' W 117°47'0 0.4
2018-Jun-11 21:30N 32°53' W 117°47'0 0.5
2018-Jun-11 20:54N 32°53' W 117°47'0 0.5
2018-Jun-11 20:30N 32°53' W 117°47'1 0.6
2018-Jun-11 19:30N 32°52' W 117°47'1 2.4
2018-Jun-11 19:00N 32°51' W 117°47'2 3.8
2018-Jun-11 18:30N 32°49' W 117°46'2 4.4
2018-Jun-11 18:00N 32°47' W 117°45'2 4.4
2018-Jun-11 17:30N 32°45' W 117°44'3 6.2
2018-Jun-11 17:00N 32°43' W 117°42'1 1.6
2018-Jun-11 16:28N 32°42' W 117°42'0 0.5
2018-Jun-11 16:00N 32°41' W 117°42'0 0.2
2018-Jun-11 15:30N 32°41' W 117°42'0 0.3
2018-Jun-11 15:00N 32°41' W 117°42'0 0.2
2018-Jun-11 14:30N 32°41' W 117°42'0 0.1
2018-Jun-11 14:00N 32°41' W 117°42'0 0.4
2018-Jun-11 13:30N 32°41' W 117°42'1 1.3
2018-Jun-11 13:00N 32°42' W 117°42'3 6.3
2018-Jun-11 12:30N 32°41' W 117°46'612.3
2018-Jun-11 12:00N 32°39' W 117°53'612.2
2018-Jun-11 11:30N 32°38' W 117°60'612.3
2018-Jun-11 11:00N 32°37' W 118°07'612.5
2018-Jun-11 10:30N 32°36' W 118°14'612.4
2018-Jun-11 10:00N 32°35' W 118°21'612.2
2018-Jun-11 09:30N 32°34' W 118°29'612.3
2018-Jun-11 08:59N 32°33' W 118°36'612.0
2018-Jun-11 08:28N 32°32' W 118°43'612.1
2018-Jun-11 07:59N 32°32' W 118°50'612.3
2018-Jun-11 07:30N 32°33' W 118°57'712.7
2018-Jun-11 06:58N 32°35' W 119°05'1111.3
2018-Jun-11 06:00N 32°36' W 119°18'1517.0 310 / 251011.810.8 15.011.315.0
2018-Jun-11 05:08N 32°46' W 119°31'213.9
2018-Jun-11 05:00N 32°47' W 119°33'713.4
2018-Jun-11 04:27N 32°50' W 119°41'713.1
2018-Jun-11 03:55N 32°53' W 119°48'913.0
2018-Jun-11 03:13N 32°59' W 119°57'513.4
2018-Jun-11 02:51N 33°02' W 120°01'413.2
2018-Jun-11 02:30N 33°05' W 120°05'713.2
2018-Jun-11 02:00N 33°10' W 120°10'613.1
2018-Jun-11 01:30N 33°15' W 120°15'612.9
2018-Jun-11 01:00N 33°20' W 120°21'713.1
2018-Jun-11 00:30N 33°24' W 120°26'713.3
2018-Jun-11 00:00N 33°29' W 120°32'5333.4
2018-Jun-11 00:00N 33°24' W 120°30'1223.5 330 / 351014.0 5.4 14.010.213.0
2018-Jun-10 23:30N 33°33' W 120°38'713.4
2018-Jun-10 22:58N 33°38' W 120°44'613.7
2018-Jun-10 22:31N 33°43' W 120°49'713.8
2018-Jun-10 21:59N 33°48' W 120°55'612.3
2018-Jun-10 21:28N 33°54' W 120°57'613.2
2018-Jun-10 21:00N 33°60' W 121°01'713.2
2018-Jun-10 20:30N 34°05' W 121°05'714.2
2018-Jun-10 19:59N 34°12' W 121°10'714.7
2018-Jun-10 19:30N 34°18' W 121°14'814.7
2018-Jun-10 18:59N 34°24' W 121°19'714.4
2018-Jun-10 18:30N 34°30' W 121°23'714.4
2018-Jun-10 18:00N 34°36' W 121°28'714.5
2018-Jun-10 17:31N 34°42' W 121°33'814.9
2018-Jun-10 17:00N 34°49' W 121°38'714.7
2018-Jun-10 16:31N 34°55' W 121°42'714.0
2018-Jun-10 16:00N 35°01' W 121°47'714.0
2018-Jun-10 15:30N 35°07' W 121°50'714.1
2018-Jun-10 14:59N 35°14' W 121°55'713.8
2018-Jun-10 14:30N 35°19' W 121°59'1414.2
2018-Jun-10 13:30N 35°31' W 122°08'10413.8
2018-Jun-10 06:00N 37°06' W 123°00'2417.7 310 / 301020.910.8 14.010.213.0
2018-Jun-10 04:37N 37°28' W 123°12'212.9
2018-Jun-10 04:29N 37°29' W 123°10'611.9
2018-Jun-10 04:00N 37°33' W 123°05'5 9.8
2018-Jun-10 03:30N 37°36' W 122°60'5 9.9
2018-Jun-10 03:00N 37°39' W 122°55'5 9.7
2018-Jun-10 02:30N 37°42' W 122°50'5 9.9
2018-Jun-10 02:00N 37°44' W 122°44'4 7.5
2018-Jun-10 01:30N 37°45' W 122°39'4 8.4
2018-Jun-10 01:00N 37°47' W 122°35'611.1
2018-Jun-10 00:30N 37°49' W 122°29'4 8.4
2018-Jun-10 00:00N 37°52' W 122°25'3 0.1
2018-Jun-08 17:14N 37°56' W 122°25'0 0.0
2018-Jun-08 17:00N 37°56' W 122°25'1 2.1
2018-Jun-08 16:30N 37°55' W 122°25'4 7.5
2018-Jun-08 16:00N 37°51' W 122°25'4 7.3
2018-Jun-08 15:30N 37°49' W 122°29'611.2
2018-Jun-08 15:00N 37°47' W 122°35'611.1
2018-Jun-08 14:30N 37°44' W 122°42'4 7.9
2018-Jun-08 14:00N 37°41' W 122°45'4 8.3
2018-Jun-08 13:30N 37°39' W 122°50'4 7.1
2018-Jun-08 13:00N 37°37' W 122°53'5 9.6
2018-Jun-08 12:30N 37°34' W 122°58'5 9.8
2018-Jun-08 12:00N 37°32' W 123°03'510.3
2018-Jun-08 11:30N 37°28' W 123°08'3 6.4
2018-Jun-08 11:00N 37°26' W 123°11'2 4.7
2018-Jun-08 10:30N 37°24' W 123°12'2 4.9
2018-Jun-08 10:00N 37°22' W 123°14'3 5.1
2018-Jun-08 09:30N 37°19' W 123°15'  

Dump ship's entire track history